createdAt,value
2018-05-13T00:00:26.524Z,20.73
2018-05-13T00:02:54.052Z,21.07
2018-05-13T00:05:21.582Z,21.10
2018-05-13T00:07:49.567Z,21.90
2018-05-13T00:10:17.067Z,23.57
2018-05-13T00:12:44.576Z,21.97
2018-05-13T00:15:12.481Z,28.73
2018-05-13T00:17:40.023Z,19.60
2018-05-13T00:20:07.564Z,25.80
2018-05-13T00:22:35.119Z,22.10
2018-05-13T00:25:04.217Z,19.40
2018-05-13T00:27:32.191Z,17.83
2018-05-13T00:29:59.713Z,23.47
2018-05-13T00:32:27.315Z,21.10
2018-05-13T00:34:54.822Z,21.20
2018-05-13T00:37:23.826Z,24.00
2018-05-13T00:39:51.431Z,20.77
2018-05-13T00:42:19.723Z,23.17
2018-05-13T00:44:47.251Z,18.70
2018-05-13T00:47:15.533Z,20.30
2018-05-13T00:49:43.027Z,22.10
2018-05-13T00:52:10.546Z,23.03
2018-05-13T00:54:50.515Z,19.03
2018-05-13T00:57:18.021Z,23.40
2018-05-13T00:59:45.523Z,23.83
2018-05-13T01:02:13.036Z,21.27
2018-05-13T01:04:40.797Z,21.30
2018-05-13T01:07:08.315Z,22.43
2018-05-13T01:09:35.814Z,21.53
2018-05-13T01:12:04.696Z,23.83
2018-05-13T01:14:32.593Z,25.57
2018-05-13T01:17:00.855Z,24.47
2018-05-13T01:19:28.385Z,24.27
2018-05-13T01:21:55.878Z,19.37
2018-05-13T01:24:24.536Z,24.20
2018-05-13T01:26:53.393Z,23.90
2018-05-13T01:29:20.911Z,24.37
2018-05-13T01:31:48.420Z,22.27
2018-05-13T01:34:16.327Z,27.13
2018-05-13T01:36:45.189Z,24.33
2018-05-13T01:39:12.693Z,24.17
2018-05-13T01:41:40.206Z,35.03
2018-05-13T01:44:07.718Z,27.40
2018-05-13T01:46:35.990Z,35.00
2018-05-13T01:49:03.490Z,29.47
2018-05-13T01:51:32.505Z,30.80
2018-05-13T01:54:00.008Z,26.53
2018-05-13T01:56:28.287Z,27.30
2018-05-13T01:58:56.944Z,30.17
2018-05-13T02:01:24.842Z,31.97
2018-05-13T02:03:53.118Z,33.00
2018-05-13T02:06:21.028Z,33.03
2018-05-13T02:08:49.302Z,33.53
2018-05-13T02:11:16.870Z,31.20
2018-05-13T02:13:44.374Z,29.37
2018-05-13T02:16:12.267Z,30.30
2018-05-13T02:18:39.780Z,31.47
2018-05-13T02:21:07.300Z,31.23
2018-05-13T02:23:34.820Z,33.33
2018-05-13T02:26:03.118Z,31.20
2018-05-13T02:28:31.408Z,31.23
2018-05-13T02:30:59.676Z,36.27
2018-05-13T02:33:27.214Z,32.60
2018-05-13T02:35:55.871Z,32.80
2018-05-13T02:38:23.398Z,35.67
2018-05-13T02:40:50.906Z,33.93
2018-05-13T02:43:18.416Z,38.70
2018-05-13T02:45:45.920Z,43.20
2018-05-13T02:48:14.230Z,34.47
2018-05-13T02:50:41.751Z,39.90
2018-05-13T02:53:10.758Z,40.20
2018-05-13T02:55:39.157Z,37.37
2018-05-13T02:58:06.661Z,35.53
2018-05-13T03:00:34.555Z,38.13
2018-05-13T03:03:02.457Z,39.93
2018-05-13T03:05:30.361Z,35.53
2018-05-13T03:07:57.891Z,38.40
2018-05-13T03:10:25.833Z,41.63
2018-05-13T03:12:53.718Z,37.07
2018-05-13T03:15:22.615Z,43.90
2018-05-13T03:17:50.514Z,44.73
2018-05-13T03:20:18.011Z,37.60
2018-05-13T03:22:46.309Z,37.50
2018-05-13T03:25:14.571Z,45.90
2018-05-13T03:27:43.415Z,40.20
2018-05-13T03:30:10.935Z,43.53
2018-05-13T03:32:40.313Z,38.77
2018-05-13T03:35:07.831Z,37.13
2018-05-13T03:37:36.171Z,31.43
2018-05-13T03:40:04.103Z,32.57
2018-05-13T03:42:31.600Z,31.60
2018-05-13T03:44:59.118Z,38.47
2018-05-13T03:47:26.636Z,36.70
2018-05-13T03:49:54.151Z,29.40
2018-05-13T03:52:21.670Z,38.83
2018-05-13T03:54:49.175Z,31.90
2018-05-13T03:57:17.463Z,32.90
2018-05-13T03:59:45.721Z,30.53
2018-05-13T04:02:15.239Z,31.43
2018-05-13T04:04:42.811Z,31.60
2018-05-13T04:07:10.711Z,28.53
2018-05-13T04:09:50.025Z,30.57
2018-05-13T04:12:29.596Z,30.57
2018-05-13T04:15:08.874Z,32.60
2018-05-13T04:17:37.155Z,33.60
2018-05-13T04:20:05.417Z,31.53
2018-05-13T04:22:32.947Z,32.73
2018-05-13T04:25:01.577Z,29.37
2018-05-13T04:27:30.170Z,25.60
2018-05-13T04:29:58.457Z,30.70
2018-05-13T04:32:25.965Z,30.93
2018-05-13T04:34:54.247Z,28.77
2018-05-13T04:37:23.253Z,30.60
2018-05-13T04:39:50.769Z,33.27
2018-05-13T04:42:18.254Z,26.70
2018-05-13T04:44:45.775Z,31.40
2018-05-13T04:47:13.307Z,28.53
2018-05-13T04:49:41.311Z,28.87
2018-05-13T04:52:08.846Z,34.50
2018-05-13T04:54:36.358Z,28.07
2018-05-13T04:57:04.289Z,23.10
2018-05-13T04:59:31.789Z,27.30
2018-05-13T05:01:59.305Z,26.20
2018-05-13T05:04:26.809Z,30.93
2018-05-13T05:06:54.722Z,22.97
2018-05-13T05:09:22.224Z,21.57
2018-05-13T05:11:49.732Z,21.83
2018-05-13T05:14:17.707Z,27.03
2018-05-13T05:16:45.691Z,21.20
2018-05-13T05:19:13.603Z,26.30
2018-05-13T05:21:41.099Z,23.80
2018-05-13T05:24:09.392Z,22.20
2018-05-13T05:26:36.894Z,25.00
2018-05-13T05:29:04.409Z,27.80
2018-05-13T05:31:31.924Z,21.87
2018-05-13T05:33:59.519Z,19.50
2018-05-13T05:36:27.487Z,21.40
2018-05-13T05:38:55.757Z,19.40
2018-05-13T05:41:23.659Z,19.37
2018-05-13T05:43:51.196Z,20.10
2018-05-13T05:46:18.764Z,18.80
2018-05-13T05:48:46.275Z,21.60
2018-05-13T05:51:13.804Z,18.00
2018-05-13T05:53:41.315Z,19.53
2018-05-13T05:56:09.590Z,18.80
2018-05-13T05:58:37.500Z,18.03
2018-05-13T06:01:05.001Z,24.03
2018-05-13T06:03:33.010Z,18.60
2018-05-13T06:06:00.568Z,19.33
2018-05-13T06:08:28.142Z,16.90
2018-05-13T06:10:55.698Z,17.77
2018-05-13T06:13:23.216Z,17.17
2018-05-13T06:15:51.470Z,16.13
2018-05-13T06:18:20.470Z,17.03
2018-05-13T06:20:47.988Z,16.43
2018-05-13T06:23:15.492Z,14.37
2018-05-13T06:25:43.012Z,15.27
2018-05-13T06:28:10.519Z,16.73
2018-05-13T06:30:38.806Z,16.33
2018-05-13T06:33:07.080Z,14.97
2018-05-13T06:35:35.364Z,15.57
2018-05-13T06:38:02.879Z,14.60
2018-05-13T06:40:30.414Z,17.77
2018-05-13T06:42:57.970Z,19.50
2018-05-13T06:45:26.246Z,14.27
2018-05-13T06:47:53.764Z,13.00
2018-05-13T06:50:22.032Z,14.00
2018-05-13T06:52:49.550Z,12.13
2018-05-13T06:55:18.186Z,15.73
2018-05-13T06:57:46.462Z,17.83
2018-05-13T07:00:14.470Z,16.20
2018-05-13T07:02:42.002Z,14.67
2018-05-13T07:05:09.530Z,13.20
2018-05-13T07:07:38.570Z,16.17
2018-05-13T07:10:06.883Z,14.00
2018-05-13T07:12:34.389Z,10.70
2018-05-13T07:15:02.679Z,13.30
2018-05-13T07:17:30.194Z,16.30
2018-05-13T07:19:58.112Z,11.43
2018-05-13T07:22:25.673Z,16.43
2018-05-13T07:24:53.189Z,14.67
2018-05-13T07:27:22.237Z,16.83
2018-05-13T07:29:49.865Z,15.20
2018-05-13T07:32:17.308Z,14.20
2018-05-13T07:34:44.814Z,13.27
2018-05-13T07:37:12.335Z,11.60
2018-05-13T07:39:40.607Z,11.10
2018-05-13T07:42:08.140Z,12.57
2018-05-13T07:44:35.658Z,12.10
2018-05-13T07:47:03.216Z,16.07
2018-05-13T07:49:30.736Z,10.30
2018-05-13T07:51:58.264Z,8.60
2018-05-13T07:54:26.527Z,9.37
2018-05-13T07:56:55.223Z,11.40
2018-05-13T07:59:22.722Z,12.33
2018-05-13T08:01:50.680Z,10.27
2018-05-13T08:04:18.214Z,10.90
2018-05-13T08:06:45.737Z,12.13
2018-05-13T08:09:14.516Z,11.50
2018-05-13T08:11:42.798Z,8.63
2018-05-13T08:14:11.077Z,8.50
2018-05-13T08:16:38.602Z,11.30
2018-05-13T08:19:06.109Z,9.20
2018-05-13T08:21:33.606Z,10.30
2018-05-13T08:24:01.109Z,8.87
2018-05-13T08:26:29.389Z,9.80
2018-05-13T08:28:56.898Z,8.57
2018-05-13T08:31:25.150Z,17.43
2018-05-13T08:33:53.101Z,10.00
2018-05-13T08:36:21.015Z,12.47
2018-05-13T08:38:48.517Z,8.83
2018-05-13T08:41:16.798Z,8.83
2018-05-13T08:43:44.687Z,8.87
2018-05-13T08:46:13.393Z,8.50
2018-05-13T08:48:40.895Z,9.17
2018-05-13T08:51:09.905Z,8.60
2018-05-13T08:53:38.142Z,9.20
2018-05-13T08:56:05.634Z,8.90
2018-05-13T08:58:33.910Z,12.17
2018-05-13T09:01:02.970Z,9.70
2018-05-13T09:03:30.489Z,9.40
2018-05-13T09:05:57.998Z,8.67
2018-05-13T09:08:26.363Z,8.67
2018-05-13T09:10:54.186Z,9.07
2018-05-13T09:13:21.706Z,7.80
2018-05-13T09:15:49.198Z,8.57
2018-05-13T09:18:16.820Z,8.50
2018-05-13T09:20:44.326Z,11.33
2018-05-13T09:23:11.866Z,8.57
2018-05-13T09:25:40.130Z,7.70
2018-05-13T09:28:08.396Z,7.50
2018-05-13T09:30:36.679Z,10.20
2018-05-13T09:33:05.019Z,6.00
2018-05-13T09:35:32.636Z,6.70
2018-05-13T09:38:00.908Z,7.43
2018-05-13T09:40:29.192Z,7.80
2018-05-13T09:42:56.771Z,7.73
2018-05-13T09:45:24.292Z,7.13
2018-05-13T09:47:52.592Z,9.00
2018-05-13T09:50:21.082Z,7.60
2018-05-13T09:52:48.988Z,8.00
2018-05-13T09:55:16.515Z,7.93
2018-05-13T09:57:44.537Z,7.70
2018-05-13T10:00:12.721Z,5.67
2018-05-13T10:02:41.014Z,7.03
2018-05-13T10:05:09.290Z,9.33
2018-05-13T10:07:37.566Z,7.03
2018-05-13T10:10:06.580Z,7.00
2018-05-13T10:12:34.143Z,8.03
2018-05-13T10:15:01.660Z,7.93
2018-05-13T10:17:29.942Z,6.60
2018-05-13T10:19:58.210Z,5.80
2018-05-13T10:22:25.701Z,7.73
2018-05-13T10:24:53.226Z,7.07
2018-05-13T10:27:21.217Z,7.03
2018-05-13T10:29:48.685Z,6.40
2018-05-13T10:32:16.197Z,5.73
2018-05-13T10:34:45.237Z,7.07
2018-05-13T10:37:12.754Z,5.53
2018-05-13T10:39:40.364Z,6.37
2018-05-13T10:42:07.918Z,6.00
2018-05-13T10:44:35.420Z,5.90
2018-05-13T10:47:02.937Z,5.70
2018-05-13T10:49:30.449Z,7.23
2018-05-13T10:51:57.955Z,6.13
2018-05-13T10:54:25.463Z,5.43
2018-05-13T10:56:52.970Z,7.13
2018-05-13T10:59:20.459Z,4.80
2018-05-13T11:01:47.982Z,5.33
2018-05-13T11:04:17.088Z,5.70
2018-05-13T11:06:44.986Z,5.33
2018-05-13T11:09:13.780Z,8.50
2018-05-13T11:11:41.291Z,5.23
2018-05-13T11:14:09.577Z,5.07
2018-05-13T11:16:37.072Z,5.20
2018-05-13T11:19:04.591Z,7.70
2018-05-13T11:21:32.848Z,4.90
2018-05-13T11:24:01.129Z,7.70
2018-05-13T11:26:29.391Z,5.10
2018-05-13T11:28:56.923Z,5.80
2018-05-13T11:31:25.193Z,5.10
2018-05-13T11:33:52.822Z,4.97
2018-05-13T11:36:20.996Z,4.13
2018-05-13T11:38:49.295Z,5.23
2018-05-13T11:41:16.818Z,4.53
2018-05-13T11:43:45.087Z,5.13
2018-05-13T11:46:13.364Z,4.77
2018-05-13T11:48:41.627Z,4.17
2018-05-13T11:51:09.152Z,10.83
2018-05-13T11:53:36.651Z,4.17
2018-05-13T11:56:04.573Z,4.13
2018-05-13T11:58:32.079Z,4.40
2018-05-13T12:00:59.619Z,4.80
2018-05-13T12:03:27.140Z,4.50
2018-05-13T12:05:54.647Z,4.47
2018-05-13T12:08:22.361Z,6.90
2018-05-13T12:10:49.933Z,4.13
2018-05-13T12:13:17.893Z,4.70
2018-05-13T12:15:45.405Z,4.70
2018-05-13T12:18:12.911Z,5.07
2018-05-13T12:20:40.418Z,4.90
2018-05-13T12:23:07.952Z,4.37
2018-05-13T12:25:36.228Z,4.10
2018-05-13T12:28:03.758Z,4.10
2018-05-13T12:30:31.288Z,3.70
2018-05-13T12:32:59.541Z,3.87
2018-05-13T12:35:27.058Z,6.10
2018-05-13T12:37:54.551Z,4.20
2018-05-13T12:40:22.074Z,4.47
2018-05-13T12:42:49.576Z,4.20
2018-05-13T12:45:17.862Z,4.67
2018-05-13T12:47:45.922Z,6.47
2018-05-13T12:50:13.504Z,5.00
2018-05-13T12:52:40.972Z,4.57
2018-05-13T12:55:09.258Z,5.40
2018-05-13T12:57:36.766Z,8.50
2018-05-13T13:00:04.309Z,5.13
2018-05-13T13:02:32.165Z,5.17
2018-05-13T13:04:59.651Z,4.80
2018-05-13T13:07:28.185Z,6.13
2018-05-13T13:09:55.698Z,5.07
2018-05-13T13:12:23.212Z,3.80
2018-05-13T13:14:51.118Z,5.77
2018-05-13T13:17:19.059Z,4.23
2018-05-13T13:19:46.568Z,5.03
2018-05-13T13:22:15.577Z,6.33
2018-05-13T13:24:43.859Z,4.60
2018-05-13T13:27:12.204Z,5.60
2018-05-13T13:29:39.695Z,4.17
2018-05-13T13:32:07.924Z,4.60
2018-05-13T13:34:35.461Z,4.70
2018-05-13T13:37:03.705Z,3.90
2018-05-13T13:39:32.557Z,3.90
2018-05-13T13:42:00.080Z,4.53
2018-05-13T13:44:27.692Z,4.87
2018-05-13T13:46:55.208Z,4.30
2018-05-13T13:49:23.146Z,3.77
2018-05-13T13:51:51.458Z,10.77
2018-05-13T13:54:18.971Z,5.30
2018-05-13T13:56:46.894Z,4.73
2018-05-13T13:59:14.418Z,3.87
2018-05-13T14:01:41.946Z,4.07
2018-05-13T14:04:09.845Z,3.87
2018-05-13T14:06:38.341Z,4.50
2018-05-13T14:09:06.296Z,3.97
2018-05-13T14:11:33.832Z,4.20
2018-05-13T14:14:01.746Z,4.07
2018-05-13T14:16:29.274Z,4.53
2018-05-13T14:18:57.541Z,3.90
2018-05-13T14:21:25.860Z,4.53
2018-05-13T14:23:53.388Z,5.23
2018-05-13T14:26:21.643Z,3.70
2018-05-13T14:28:49.150Z,4.40
2018-05-13T14:31:16.653Z,4.00
2018-05-13T14:33:44.697Z,3.57
2018-05-13T14:36:12.209Z,4.00
2018-05-13T14:38:40.490Z,3.67
2018-05-13T14:41:08.832Z,5.80
2018-05-13T14:43:36.315Z,4.40
2018-05-13T14:46:03.858Z,4.80
2018-05-13T14:48:31.376Z,4.20
2018-05-13T14:50:58.874Z,3.60
2018-05-13T14:53:27.183Z,4.77
2018-05-13T14:55:55.091Z,4.40
2018-05-13T14:58:23.744Z,5.27
2018-05-13T15:00:51.276Z,5.47
2018-05-13T15:03:19.531Z,5.07
2018-05-13T15:05:47.073Z,4.83
2018-05-13T15:08:14.605Z,4.07
2018-05-13T15:10:42.110Z,6.10
2018-05-13T15:13:09.939Z,4.33
2018-05-13T15:15:37.475Z,6.70
2018-05-13T15:18:05.773Z,4.67
2018-05-13T15:20:34.242Z,4.77
2018-05-13T15:23:01.816Z,4.33
2018-05-13T15:25:29.316Z,4.97
2018-05-13T15:27:56.852Z,4.43
2018-05-13T15:30:24.395Z,4.50
2018-05-13T15:32:52.284Z,7.53
2018-05-13T15:35:19.773Z,5.00
2018-05-13T15:37:48.071Z,5.53
2018-05-13T15:40:15.986Z,4.80
2018-05-13T15:42:43.710Z,4.70
2018-05-13T15:45:11.136Z,5.37
2018-05-13T15:47:40.256Z,5.03
2018-05-13T15:50:07.799Z,4.27
2018-05-13T15:52:36.064Z,4.90
2018-05-13T15:55:03.684Z,4.73
2018-05-13T15:57:31.921Z,6.10
2018-05-13T15:59:59.827Z,4.70
2018-05-13T16:02:27.329Z,5.00
2018-05-13T16:04:55.633Z,5.03
2018-05-13T16:07:23.941Z,5.00
2018-05-13T16:09:51.450Z,5.40
2018-05-13T16:12:19.015Z,6.27
2018-05-13T16:14:46.597Z,7.13
2018-05-13T16:17:14.919Z,9.00
2018-05-13T16:19:42.428Z,7.23
2018-05-13T16:22:10.339Z,14.70
2018-05-13T16:24:39.414Z,13.97
2018-05-13T16:27:08.067Z,8.03
2018-05-13T16:29:36.360Z,10.63
2018-05-13T16:32:04.261Z,8.40
2018-05-13T16:34:31.901Z,7.70
2018-05-13T16:36:59.413Z,7.63
2018-05-13T16:39:28.487Z,8.67
2018-05-13T16:41:56.387Z,11.83
2018-05-13T16:44:24.671Z,7.50
2018-05-13T16:46:52.926Z,10.63
2018-05-13T16:49:20.451Z,10.40
2018-05-13T16:51:48.333Z,8.57
2018-05-13T16:54:15.867Z,6.90
2018-05-13T16:56:44.189Z,8.70
2018-05-13T16:59:12.554Z,8.83
2018-05-13T17:01:41.626Z,8.73
2018-05-13T17:04:09.895Z,12.50
2018-05-13T17:06:37.407Z,7.97
2018-05-13T17:09:05.702Z,7.83
2018-05-13T17:11:33.293Z,7.80
2018-05-13T17:14:00.847Z,9.93
2018-05-13T17:16:29.194Z,8.80
2018-05-13T17:18:58.321Z,11.80
2018-05-13T17:21:25.849Z,8.30
2018-05-13T17:23:54.981Z,8.83
2018-05-13T17:26:22.885Z,9.80
2018-05-13T17:28:51.104Z,8.40
2018-05-13T17:31:18.626Z,8.57
2018-05-13T17:33:46.556Z,8.23
2018-05-13T17:36:14.074Z,9.43
2018-05-13T17:38:42.393Z,11.33
2018-05-13T17:41:09.968Z,13.60
2018-05-13T17:43:39.029Z,8.93
2018-05-13T17:46:07.353Z,11.60
2018-05-13T17:48:35.288Z,9.90
2018-05-13T17:51:02.855Z,9.93
2018-05-13T17:53:31.786Z,9.87
2018-05-13T17:55:59.702Z,11.00
2018-05-13T17:58:28.046Z,10.17
2018-05-13T18:00:56.522Z,9.33
2018-05-13T18:03:24.225Z,11.17
2018-05-13T18:05:53.670Z,8.90
2018-05-13T18:08:23.172Z,17.93
2018-05-13T18:10:50.685Z,10.03
2018-05-13T18:13:19.014Z,13.17
2018-05-13T18:15:46.530Z,12.70
2018-05-13T18:18:14.089Z,10.93
2018-05-13T18:20:41.602Z,10.30
2018-05-13T18:23:09.169Z,13.90
2018-05-13T18:25:38.847Z,15.17
2018-05-13T18:28:06.358Z,9.60
2018-05-13T18:30:35.262Z,16.63
2018-05-13T18:33:04.284Z,10.50
2018-05-13T18:35:34.418Z,12.20
2018-05-13T18:38:04.098Z,15.30
2018-05-13T18:40:32.983Z,14.50
2018-05-13T18:43:06.159Z,11.67
2018-05-13T18:45:35.023Z,14.43
2018-05-13T18:48:02.633Z,11.17
2018-05-13T18:50:32.231Z,10.43
2018-05-13T18:53:01.722Z,13.20
2018-05-13T18:55:31.474Z,13.07
2018-05-13T18:58:02.720Z,9.87
2018-05-13T19:00:30.648Z,10.93
2018-05-13T19:02:58.304Z,9.07
2018-05-13T19:05:27.627Z,13.27
2018-05-13T19:07:56.628Z,13.60
2018-05-13T19:10:28.127Z,8.67
2018-05-13T19:12:59.778Z,14.30
2018-05-13T19:15:30.744Z,10.60
2018-05-13T19:17:59.932Z,11.83
2018-05-13T19:20:28.266Z,16.13
2018-05-13T19:22:57.051Z,9.60
2018-05-13T19:25:25.784Z,11.43
2018-05-13T19:27:55.000Z,14.03
2018-05-13T19:30:25.473Z,12.97
2018-05-13T19:32:53.022Z,14.40
2018-05-13T19:35:20.537Z,11.20
2018-05-13T19:37:48.452Z,17.93
2018-05-13T19:40:16.002Z,10.23
2018-05-13T19:42:44.735Z,11.77
2018-05-13T19:45:12.710Z,12.00
2018-05-13T19:47:41.067Z,16.03
2018-05-13T19:50:11.703Z,13.17
2018-05-13T19:52:39.253Z,13.70
2018-05-13T19:55:07.393Z,12.40
2018-05-13T19:57:34.944Z,8.50
2018-05-13T20:00:03.861Z,9.47
2018-05-13T20:02:33.034Z,15.10
2018-05-13T20:05:02.669Z,10.57
2018-05-13T20:07:31.015Z,17.97
2018-05-13T20:09:58.557Z,10.63
2018-05-13T20:12:26.548Z,8.70
2018-05-13T20:14:54.499Z,14.30
2018-05-13T20:17:22.981Z,10.80
2018-05-13T20:19:51.621Z,11.30
2018-05-13T20:22:19.577Z,8.97
2018-05-13T20:24:50.155Z,10.43
2018-05-13T20:27:17.763Z,10.67
2018-05-13T20:29:45.743Z,12.57
2018-05-13T20:32:13.277Z,10.60
2018-05-13T20:34:41.059Z,11.37
2018-05-13T20:37:09.745Z,8.93
2018-05-13T20:39:38.181Z,17.43
2018-05-13T20:42:06.129Z,14.40
2018-05-13T20:44:35.193Z,12.07
2018-05-13T20:47:02.735Z,7.83
2018-05-13T20:49:31.265Z,13.33
2018-05-13T20:51:59.859Z,11.20
2018-05-13T20:54:27.405Z,9.93
2018-05-13T20:56:55.800Z,10.40
2018-05-13T20:59:23.310Z,9.83
2018-05-13T21:01:51.313Z,13.97
2018-05-13T21:04:20.374Z,13.87
2018-05-13T21:06:47.957Z,12.63
2018-05-13T21:09:16.612Z,11.60
2018-05-13T21:11:46.480Z,10.20
2018-05-13T21:14:14.405Z,10.43
2018-05-13T21:16:41.934Z,9.40
2018-05-13T21:19:10.246Z,13.63
2018-05-13T21:21:38.524Z,11.47
2018-05-13T21:24:06.827Z,14.50
2018-05-13T21:26:34.739Z,10.70
2018-05-13T21:29:03.001Z,11.27
2018-05-13T21:31:30.943Z,9.37
2018-05-13T21:33:58.428Z,11.33
2018-05-13T21:36:26.661Z,9.10
2018-05-13T21:38:54.177Z,8.80
2018-05-13T21:41:23.002Z,12.40
2018-05-13T21:43:50.478Z,13.23
2018-05-13T21:46:17.970Z,15.57
2018-05-13T21:48:46.207Z,9.70
2018-05-13T21:51:14.046Z,12.07
2018-05-13T21:53:41.542Z,10.90
2018-05-13T21:56:09.050Z,9.97
2018-05-13T21:58:37.870Z,12.60
2018-05-13T22:01:05.767Z,14.73
2018-05-13T22:03:33.245Z,12.73
2018-05-13T22:06:01.530Z,9.70
2018-05-13T22:08:29.800Z,10.73
2018-05-13T22:10:58.645Z,11.00
2018-05-13T22:13:26.145Z,9.13
2018-05-13T22:15:54.434Z,18.33
2018-05-13T22:18:22.333Z,19.13
2018-05-13T22:20:49.824Z,14.00
2018-05-13T22:23:17.741Z,15.07
2018-05-13T22:25:45.994Z,11.93
2018-05-13T22:28:13.863Z,9.13
2018-05-13T22:30:42.190Z,11.53
2018-05-13T22:33:10.964Z,15.03
2018-05-13T22:35:38.842Z,17.23
2018-05-13T22:38:06.336Z,12.47
2018-05-13T22:40:35.195Z,10.90
2018-05-13T22:43:03.493Z,11.80
2018-05-13T22:45:31.000Z,11.63
2018-05-13T22:47:58.495Z,10.87
2018-05-13T22:50:26.009Z,12.47
2018-05-13T22:52:54.847Z,9.77
2018-05-13T22:55:22.352Z,12.20
2018-05-13T22:57:50.619Z,10.47
2018-05-13T23:00:19.639Z,12.53
2018-05-13T23:02:47.154Z,10.10
2018-05-13T23:05:14.650Z,10.87
2018-05-13T23:07:42.556Z,12.83
2018-05-13T23:10:10.822Z,11.23
2018-05-13T23:12:38.328Z,13.37
2018-05-13T23:15:06.227Z,16.10
2018-05-13T23:17:33.738Z,11.57
2018-05-13T23:20:02.578Z,9.63
2018-05-13T23:22:36.174Z,11.07
2018-05-13T23:25:03.668Z,9.90
2018-05-13T23:27:31.931Z,10.27
2018-05-13T23:29:59.488Z,16.93
2018-05-13T23:32:26.989Z,10.20
2018-05-13T23:34:55.273Z,10.03
2018-05-13T23:37:22.777Z,14.20
2018-05-13T23:39:50.285Z,11.13
2018-05-13T23:42:17.795Z,13.80
2018-05-13T23:44:46.075Z,13.83
2018-05-13T23:47:13.583Z,10.13
2018-05-13T23:49:41.099Z,17.90
2018-05-13T23:52:08.591Z,11.60
2018-05-13T23:54:37.613Z,12.67
2018-05-13T23:57:06.631Z,14.37
2018-05-13T23:59:34.141Z,14.93
